Time;durP1;ratioP1;P1;durP2;ratioP2;P2;SDS_P1;SDS_P2;PMS_P1;PMS_P2;Temp;Humidity;BMP_temperature;BMP_pressure;BME280_temperature;BME280_humidity;BME280_pressure;Samples;Min_cycle;Max_cycle;Signal;HPM_P1;HPM_P2
2023/11/09 00:00:02;;;;;;;;;;;;;;;21.64;30.83;97878.56;4978867;28;1238;-75
2023/11/09 00:02:29;;;;;;;;;;;;;;;21.54;30.99;97879.66;4979572;28;1910;-75
2023/11/09 00:04:55;;;;;;;;;;;;;;;21.71;30.38;97886.88;4975704;28;1016;-75
2023/11/09 00:07:23;;;;;;;;;;;;;;;21.51;30.46;97911.72;4975607;28;973;-75
2023/11/09 00:09:51;;;;;;;;;;;;;;;21.31;30.52;97909.81;4975522;28;1019;-75
2023/11/09 00:12:19;;;;;;;;;;;;;;;21.50;30.25;97907.25;5005414;28;1906;-75
2023/11/09 00:14:47;;;;;;;;;;;;;;;21.49;30.16;97917.00;4998243;28;1040;-75
2023/11/09 00:17:13;;;;;;;;;;;;;;;21.46;30.45;97913.03;4982226;28;1251;-75
2023/11/09 00:19:38;;;;;;;;;;;;;;;21.71;29.94;97917.19;4998145;28;1178;-75
2023/11/09 00:22:04;;;;;;;;;;;;;;;21.77;29.78;97916.22;5014359;28;1977;-75
2023/11/09 00:24:29;;;;;;;;;;;;;;;21.82;29.53;97917.72;5014062;28;944;-75
2023/11/09 00:26:56;;;;;;;;;;;;;;;21.57;30.10;97941.06;5027443;28;963;-75
2023/11/09 00:29:22;;;;;;;;;;;;;;;21.56;30.00;97943.09;5037224;28;1656;-75
2023/11/09 00:31:48;;;;;;;;;;;;;;;21.33;30.18;97932.78;5037225;28;1091;-75
2023/11/09 00:34:14;;;;;;;;;;;;;;;21.47;29.92;97947.81;5037276;28;1145;-75
2023/11/09 00:36:40;;;;;;;;;;;;;;;21.38;30.12;97945.59;5037451;28;952;-75
2023/11/09 00:39:07;;;;;;;;;;;;;;;21.54;29.89;97953.25;5054008;28;1261;-75
2023/11/09 00:41:33;;;;;;;;;;;;;;;21.29;30.35;97943.34;5053560;28;1914;-75
2023/11/09 00:43:58;;;;;;;;;;;;;;;21.44;30.01;97949.47;5037270;28;1225;-75
2023/11/09 00:46:24;;;;;;;;;;;;;;;21.36;30.09;97952.97;5036920;28;1003;-74
2023/11/09 00:48:49;;;;;;;;;;;;;;;21.36;29.92;97958.63;5036805;28;1313;-75
2023/11/09 00:51:15;;;;;;;;;;;;;;;21.27;29.89;97947.88;5053701;28;1020;-75
2023/11/09 00:53:40;;;;;;;;;;;;;;;21.41;29.95;97943.94;5037344;28;1018;-75
2023/11/09 00:56:06;;;;;;;;;;;;;;;21.39;30.02;97937.91;5041412;28;1046;-75
2023/11/09 00:58:32;;;;;;;;;;;;;;;21.37;29.83;97948.88;5024273;28;939;-75
2023/11/09 01:00:58;;;;;;;;;;;;;;;21.17;30.03;97958.25;5005896;28;1182;-75
2023/11/09 01:03:24;;;;;;;;;;;;;;;20.96;30.79;97984.25;5017822;28;1969;-75
2023/11/09 01:05:49;;;;;;;;;;;;;;;21.19;30.51;97992.56;5018188;28;1000;-75
2023/11/09 01:08:15;;;;;;;;;;;;;;;21.23;30.24;97996.06;5017948;28;982;-75
2023/11/09 01:10:43;;;;;;;;;;;;;;;21.20;29.91;98013.97;5001701;28;1116;-75
2023/11/09 01:13:09;;;;;;;;;;;;;;;21.11;30.06;98008.13;5001672;28;1104;-75
2023/11/09 01:15:35;;;;;;;;;;;;;;;21.24;29.88;98017.50;5000968;28;1074;-75
2023/11/09 01:18:04;;;;;;;;;;;;;;;21.21;30.01;98017.59;5001451;28;1088;-75
2023/11/09 01:20:30;;;;;;;;;;;;;;;21.39;29.35;98014.31;5004390;28;1522;-75
2023/11/09 01:22:56;;;;;;;;;;;;;;;21.20;29.85;98013.16;5020923;28;1910;-75
2023/11/09 01:25:21;;;;;;;;;;;;;;;21.27;29.71;98002.44;5021082;28;979;-75
2023/11/09 01:27:47;;;;;;;;;;;;;;;21.17;29.72;97997.06;5020876;28;961;-75
2023/11/09 01:30:12;;;;;;;;;;;;;;;21.39;29.42;98009.44;5020771;28;1135;-75
2023/11/09 01:32:38;;;;;;;;;;;;;;;21.21;29.79;98021.19;5013213;28;981;-75
2023/11/09 01:35:04;;;;;;;;;;;;;;;21.23;29.67;98030.03;5001139;28;1256;-75
2023/11/09 01:37:29;;;;;;;;;;;;;;;20.94;29.85;98026.31;5017173;28;1180;-75
2023/11/09 01:39:55;;;;;;;;;;;;;;;20.99;29.79;98026.59;5000986;28;1212;-75
2023/11/09 01:42:20;;;;;;;;;;;;;;;21.13;29.76;98028.25;5017249;28;1883;-75
2023/11/09 01:44:46;;;;;;;;;;;;;;;21.28;29.78;98028.72;4968565;28;1084;-75
2023/11/09 01:47:12;;;;;;;;;;;;;;;21.82;29.83;98037.47;4942571;29;1569;-75
2023/11/09 01:49:37;;;;;;;;;;;;;;;21.91;30.23;98044.50;4958589;28;904;-75
2023/11/09 01:52:03;;;;;;;;;;;;;;;21.85;31.32;98047.09;4942587;28;1234;-76
2023/11/09 01:54:30;;;;;;;;;;;;;;;21.92;31.63;98051.78;4942815;28;984;-75
2023/11/09 01:56:56;;;;;;;;;;;;;;;21.44;31.83;98050.59;4927082;28;1241;-75
2023/11/09 01:59:22;;;;;;;;;;;;;;;21.55;31.63;98046.25;4926895;28;1229;-75
2023/11/09 02:01:47;;;;;;;;;;;;;;;21.66;31.04;98048.00;4908596;29;1993;-75
2023/11/09 02:04:13;;;;;;;;;;;;;;;21.40;31.52;98049.88;4972795;28;1455;-76
2023/11/09 02:06:39;;;;;;;;;;;;;;;21.69;30.84;98045.09;4945149;28;1131;-75
2023/11/09 02:09:05;;;;;;;;;;;;;;;21.47;30.71;98049.72;4945533;28;1169;-75
2023/11/09 02:11:31;;;;;;;;;;;;;;;21.48;30.68;98051.28;4977915;28;934;-75
2023/11/09 02:13:56;;;;;;;;;;;;;;;21.43;30.75;98037.69;4977524;28;903;-75
2023/11/09 02:16:22;;;;;;;;;;;;;;;21.00;31.59;98039.50;4961395;28;1187;-75
2023/11/09 02:18:47;;;;;;;;;;;;;;;21.01;31.39;98034.63;5025257;28;1029;-75
2023/11/09 02:21:15;;;;;;;;;;;;;;;21.28;31.18;98025.88;5039464;28;2032;-75
2023/11/09 02:23:40;;;;;;;;;;;;;;;21.63;30.62;98035.53;5039862;28;1199;-75
2023/11/09 02:26:06;;;;;;;;;;;;;;;21.11;31.58;98050.56;5039393;28;1239;-75
2023/11/09 02:28:32;;;;;;;;;;;;;;;21.46;30.93;98036.81;5006957;28;1687;-75
2023/11/09 02:30:58;;;;;;;;;;;;;;;21.42;30.77;98055.91;5039480;28;1208;-75
2023/11/09 02:33:23;;;;;;;;;;;;;;;21.53;30.80;98059.25;5055960;28;1099;-75
2023/11/09 02:35:49;;;;;;;;;;;;;;;21.39;31.04;98056.78;5039070;28;1288;-75
2023/11/09 02:38:15;;;;;;;;;;;;;;;21.20;31.08;98064.88;5039336;28;1034;-75
2023/11/09 02:40:40;;;;;;;;;;;;;;;21.47;30.82;98066.69;5006350;28;955;-75
2023/11/09 02:43:06;;;;;;;;;;;;;;;21.40;30.63;98069.69;5038853;28;1914;-75
2023/11/09 02:45:31;;;;;;;;;;;;;;;21.41;30.56;98068.47;5039447;28;996;-75
2023/11/09 02:47:57;;;;;;;;;;;;;;;21.39;30.49;98070.94;5038922;28;948;-75
2023/11/09 02:50:23;;;;;;;;;;;;;;;21.25;30.49;98072.84;5021576;28;925;-75
2023/11/09 02:52:48;;;;;;;;;;;;;;;21.43;30.34;98072.44;5016997;28;1135;-75
2023/11/09 02:55:18;;;;;;;;;;;;;;;21.10;31.07;98076.47;5017320;28;1044;-75
2023/11/09 02:57:44;;;;;;;;;;;;;;;21.37;30.40;98076.25;5018124;28;880;-75
2023/11/09 03:00:10;;;;;;;;;;;;;;;21.42;30.42;98067.22;5016928;28;1110;-75
2023/11/09 03:02:36;;;;;;;;;;;;;;;21.19;30.47;98068.97;5017742;28;1981;-75
2023/11/09 03:05:01;;;;;;;;;;;;;;;21.40;30.27;98061.19;5033345;28;1217;-75
2023/11/09 03:07:27;;;;;;;;;;;;;;;21.54;29.81;98067.28;5016735;28;1255;-75
2023/11/09 03:09:52;;;;;;;;;;;;;;;21.28;30.19;98066.28;5016636;28;1092;-76
2023/11/09 03:12:18;;;;;;;;;;;;;;;21.25;30.12;98072.06;5016641;28;1118;-75
2023/11/09 03:14:43;;;;;;;;;;;;;;;21.35;30.17;98076.69;5016706;28;1241;-75
2023/11/09 03:17:10;;;;;;;;;;;;;;;21.28;30.14;98083.28;5017967;28;1041;-75
2023/11/09 03:19:36;;;;;;;;;;;;;;;21.23;30.06;98080.19;5016907;28;1143;-75
2023/11/09 03:22:02;;;;;;;;;;;;;;;21.16;30.21;98083.97;5032997;28;1902;-75
2023/11/09 03:24:29;;;;;;;;;;;;;;;21.48;29.56;98086.06;5016689;28;1369;-75
2023/11/09 03:26:58;;;;;;;;;;;;;;;21.45;29.59;98088.97;5016203;28;869;-75
2023/11/09 03:29:24;;;;;;;;;;;;;;;21.30;29.81;98085.72;5016268;28;959;-75
2023/11/09 03:31:50;;;;;;;;;;;;;;;21.26;29.98;98097.09;5032539;28;914;-75
2023/11/09 03:34:15;;;;;;;;;;;;;;;21.09;30.26;98092.66;5016346;28;1349;-76
2023/11/09 03:36:41;;;;;;;;;;;;;;;21.17;29.78;98094.06;5015977;28;1024;-75
2023/11/09 03:39:06;;;;;;;;;;;;;;;21.21;29.89;98099.66;4998619;28;1215;-75
2023/11/09 03:41:32;;;;;;;;;;;;;;;21.47;29.31;98092.97;5017167;28;1963;-75
2023/11/09 03:43:57;;;;;;;;;;;;;;;21.19;29.55;98100.09;5016284;28;964;-75
2023/11/09 03:46:23;;;;;;;;;;;;;;;21.27;29.30;98098.66;5016094;28;1205;-75
2023/11/09 03:48:48;;;;;;;;;;;;;;;21.28;29.31;98105.91;5016014;28;1200;-75
2023/11/09 03:51:14;;;;;;;;;;;;;;;21.22;29.53;98107.69;5016193;28;1127;-75
2023/11/09 03:53:40;;;;;;;;;;;;;;;21.22;29.50;98102.03;5015927;28;1005;-75
2023/11/09 03:56:06;;;;;;;;;;;;;;;21.22;29.39;98102.03;5016111;28;965;-75
2023/11/09 03:58:31;;;;;;;;;;;;;;;20.86;29.91;98104.06;5016335;28;892;-75
2023/11/09 04:00:57;;;;;;;;;;;;;;;21.06;29.47;98104.81;5018340;28;2245;-75
2023/11/09 04:03:23;;;;;;;;;;;;;;;21.15;29.46;98105.03;5055685;28;1909;-75
2023/11/09 04:05:48;;;;;;;;;;;;;;;21.64;28.75;98116.41;5037128;28;882;-75
2023/11/09 04:08:14;;;;;;;;;;;;;;;21.65;28.80;98111.53;5035251;28;1542;-75
2023/11/09 04:10:39;;;;;;;;;;;;;;;21.44;29.19;98107.19;5035746;28;951;-75
2023/11/09 04:13:05;;;;;;;;;;;;;;;21.25;29.34;98118.13;5036622;28;909;-75
2023/11/09 04:15:31;;;;;;;;;;;;;;;21.43;28.86;98116.94;5018890;28;1049;-75
2023/11/09 04:17:56;;;;;;;;;;;;;;;21.14;29.56;98123.25;5019008;28;1221;-75
2023/11/09 04:20:22;;;;;;;;;;;;;;;21.23;29.38;98131.91;5019377;28;1174;-75
2023/11/09 04:22:48;;;;;;;;;;;;;;;21.07;29.47;98134.72;5018162;28;1914;-75
2023/11/09 04:25:13;;;;;;;;;;;;;;;20.92;29.45;98139.09;5029193;28;1962;-75
2023/11/09 04:27:39;;;;;;;;;;;;;;;21.24;28.93;98150.50;5000256;28;1728;-75
2023/11/09 04:30:05;;;;;;;;;;;;;;;20.97;29.63;98155.53;5029674;28;869;-76
2023/11/09 04:32:32;;;;;;;;;;;;;;;21.33;28.74;98150.72;5016742;28;1049;-75
2023/11/09 04:34:57;;;;;;;;;;;;;;;21.39;28.86;98142.50;5015578;28;1146;-75
2023/11/09 04:37:25;;;;;;;;;;;;;;;21.11;28.99;98152.41;5031433;28;1499;-75
2023/11/09 04:39:57;;;;;;;;;;;;;;;21.10;29.25;98164.97;5034637;28;1668;-75
2023/11/09 04:42:24;;;;;;;;;;;;;;;21.46;28.89;98167.03;5018886;28;1906;-76
2023/11/09 04:44:50;;;;;;;;;;;;;;;22.06;28.95;98165.50;5002142;28;1634;-75
2023/11/09 04:47:21;;;;;;;;;;;;;;;22.06;29.84;98173.22;5035760;28;1555;-75
2023/11/09 04:49:49;;;;;;;;;;;;;;;22.25;30.08;98171.56;5018885;28;1423;-75
2023/11/09 04:52:16;;;;;;;;;;;;;;;21.17;31.25;98183.81;5018112;28;1519;-75
2023/11/09 04:54:45;;;;;;;;;;;;;;;21.13;31.49;98189.53;5035258;28;1363;-75
2023/11/09 05:07:51;;;;;;;;;;;;;;;21.12;30.61;98206.97;5034387;28;1540;-76
2023/11/09 05:10:17;;;;;;;;;;;;;;;21.21;30.56;98210.81;5035560;28;1498;-76
2023/11/09 05:12:42;;;;;;;;;;;;;;;21.26;30.69;98204.63;5017883;28;1394;-75
2023/11/09 05:15:08;;;;;;;;;;;;;;;21.31;30.46;98221.13;5033141;28;1686;-75
2023/11/09 05:17:34;;;;;;;;;;;;;;;21.20;30.96;98223.34;5033167;28;1591;-75
2023/11/09 05:20:00;;;;;;;;;;;;;;;21.41;30.25;98221.34;5016467;28;1567;-75
2023/11/09 05:22:26;;;;;;;;;;;;;;;21.20;30.44;98212.03;5016944;28;1898;-75
2023/11/09 05:24:52;;;;;;;;;;;;;;;21.18;30.83;98225.81;5032835;28;1447;-75
2023/11/09 05:27:19;;;;;;;;;;;;;;;21.11;30.83;98231.63;5016784;28;1660;-75
2023/11/09 05:29:46;;;;;;;;;;;;;;;21.00;30.66;98231.06;5033030;28;1272;-76
2023/11/09 05:32:13;;;;;;;;;;;;;;;21.20;30.24;98233.88;5032989;28;1422;-75
2023/11/09 05:34:39;;;;;;;;;;;;;;;21.05;30.50;98239.84;5033020;28;1407;-75
2023/11/09 05:37:05;;;;;;;;;;;;;;;21.03;30.55;98247.94;5016605;28;1454;-75
2023/11/09 05:39:31;;;;;;;;;;;;;;;21.23;30.22;98256.44;5031604;28;1477;-75
2023/11/09 05:41:57;;;;;;;;;;;;;;;20.94;30.64;98266.75;5018886;28;1903;-75
2023/11/09 05:44:23;;;;;;;;;;;;;;;20.69;30.83;98272.88;5036529;28;1434;-75
2023/11/09 05:46:49;;;;;;;;;;;;;;;20.96;30.40;98267.09;5033610;28;1529;-75
2023/11/09 05:49:15;;;;;;;;;;;;;;;21.34;29.85;98273.22;5020857;28;1678;-75
2023/11/09 05:51:43;;;;;;;;;;;;;;;21.58;29.56;98271.88;5056119;28;1412;-75
2023/11/09 05:54:09;;;;;;;;;;;;;;;21.40;29.70;98276.31;5023595;28;1519;-75
2023/11/09 05:56:34;;;;;;;;;;;;;;;21.47;29.58;98267.69;5036198;28;1432;-75
2023/11/09 05:59:00;;;;;;;;;;;;;;;21.42;29.54;98276.69;5056190;28;1439;-75
2023/11/09 06:01:30;;;;;;;;;;;;;;;21.27;29.93;98285.47;5056230;28;1894;-75
2023/11/09 06:03:56;;;;;;;;;;;;;;;20.85;30.29;98289.16;5036683;28;1471;-75
2023/11/09 06:06:22;;;;;;;;;;;;;;;20.99;30.39;98297.38;5039366;28;1238;-75
2023/11/09 06:08:49;;;;;;;;;;;;;;;20.88;30.38;98293.91;5039678;28;1671;-75
2023/11/09 06:11:15;;;;;;;;;;;;;;;21.12;29.74;98301.13;5055783;28;1321;-75
2023/11/09 06:13:41;;;;;;;;;;;;;;;21.17;29.85;98303.44;5023228;28;1575;-75
2023/11/09 06:16:07;;;;;;;;;;;;;;;21.15;29.69;98305.94;5052899;28;1494;-75
2023/11/09 06:18:33;;;;;;;;;;;;;;;21.26;29.76;98303.69;5039115;28;1404;-75
2023/11/09 06:21:00;;;;;;;;;;;;;;;21.02;29.74;98302.13;5021205;28;1483;-75
2023/11/09 06:23:29;;;;;;;;;;;;;;;20.96;30.04;98309.53;4966503;28;1991;-75
2023/11/09 06:25:55;;;;;;;;;;;;;;;21.08;29.68;98314.53;4978141;28;1449;-76
2023/11/09 06:28:22;;;;;;;;;;;;;;;21.30;29.50;98314.97;4977312;28;1573;-75
2023/11/09 06:30:47;;;;;;;;;;;;;;;20.89;30.18;98321.78;4952329;28;1399;-75
2023/11/09 06:33:13;;;;;;;;;;;;;;;21.01;29.91;98318.31;4954447;28;1489;-76
2023/11/09 06:35:40;;;;;;;;;;;;;;;20.93;30.27;98328.16;4979498;28;1579;-75
2023/11/09 06:38:08;;;;;;;;;;;;;;;21.09;29.66;98319.00;4979441;28;1367;-75
2023/11/09 06:40:35;;;;;;;;;;;;;;;21.03;30.01;98318.66;4956258;28;1415;-75
2023/11/09 06:43:00;;;;;;;;;;;;;;;20.97;30.26;98333.75;4973045;28;1902;-75
2023/11/09 06:45:26;;;;;;;;;;;;;;;20.75;30.34;98333.34;4972372;28;1624;-75
2023/11/09 06:47:51;;;;;;;;;;;;;;;21.04;29.95;98333.63;4968258;28;1423;-75
2023/11/09 06:50:19;;;;;;;;;;;;;;;21.09;29.80;98330.31;4967448;28;1574;-75
2023/11/09 06:52:45;;;;;;;;;;;;;;;20.99;29.96;98351.91;4977802;28;1639;-75
2023/11/09 06:55:11;;;;;;;;;;;;;;;21.15;29.85;98345.53;4981942;28;1378;-75
2023/11/09 06:57:37;;;;;;;;;;;;;;;21.45;29.34;98346.59;4968188;28;1527;-75
2023/11/09 07:00:06;;;;;;;;;;;;;;;21.43;29.49;98349.06;4957284;28;1560;-75
2023/11/09 07:02:32;;;;;;;;;;;;;;;21.26;29.65;98351.78;5028430;28;1971;-75
2023/11/09 07:04:58;;;;;;;;;;;;;;;21.41;29.43;98358.00;5027769;28;1446;-76
2023/11/09 07:07:23;;;;;;;;;;;;;;;21.19;29.94;98368.91;5036357;28;1499;-76
2023/11/09 07:09:49;;;;;;;;;;;;;;;21.40;29.34;98366.91;5037141;28;1371;-75
2023/11/09 07:12:14;;;;;;;;;;;;;;;21.47;29.45;98366.78;5037332;28;1398;-75
2023/11/09 07:14:40;;;;;;;;;;;;;;;21.14;29.80;98383.56;5054575;28;1404;-75
2023/11/09 07:17:06;;;;;;;;;;;;;;;21.26;29.55;98382.91;5037728;28;1426;-75
2023/11/09 07:19:33;;;;;;;;;;;;;;;20.98;30.16;98387.06;5038526;28;1659;-75
2023/11/09 07:22:00;;;;;;;;;;;;;;;21.21;29.39;98386.25;5019460;28;1906;-75
2023/11/09 07:24:26;;;;;;;;;;;;;;;21.03;29.85;98400.72;5038012;28;1456;-75
2023/11/09 07:29:37;;;;;;;;;;;;;;;21.75;29.96;98394.50;5054825;28;1347;-73
2023/11/09 07:32:03;;;;;;;;;;;;;;;22.02;29.92;98400.00;5022444;28;1412;-73
2023/11/09 07:34:30;;;;;;;;;;;;;;;21.70;30.64;98397.03;5039483;28;1459;-73
2023/11/09 07:36:58;;;;;;;;;;;;;;;21.58;30.55;98395.66;5055633;28;1519;-73
2023/11/09 07:39:27;;;;;;;;;;;;;;;21.40;30.23;98400.88;5057347;28;1384;-73
2023/11/09 07:42:05;;;;;;;;;;;;;;;21.12;29.96;98414.31;5039042;28;1905;-72
2023/11/09 07:44:31;;;;;;;;;;;;;;;21.01;30.05;98411.69;5056474;28;1540;-73
2023/11/09 07:46:59;;;;;;;;;;;;;;;20.91;30.32;98409.84;5039006;28;1585;-73
2023/11/09 07:49:29;;;;;;;;;;;;;;;20.93;30.18;98412.22;5054688;28;1523;-73
2023/11/09 07:51:54;;;;;;;;;;;;;;;21.12;30.35;98417.13;5038943;28;1595;-72
2023/11/09 07:54:21;;;;;;;;;;;;;;;21.38;30.85;98421.13;5054725;28;1511;-73
2023/11/09 07:56:50;;;;;;;;;;;;;;;21.03;31.42;98422.56;5022833;28;1641;-73
2023/11/09 07:59:16;;;;;;;;;;;;;;;21.01;31.26;98413.72;5055635;28;867;-73
2023/11/09 08:01:41;;;;;;;;;;;;;;;21.14;30.99;98420.34;5056848;28;1976;-74
2023/11/09 08:04:08;;;;;;;;;;;;;;;21.03;30.99;98416.88;5020987;28;1051;-73
2023/11/09 08:06:34;;;;;;;;;;;;;;;20.80;31.31;98421.31;5018042;28;992;-73
2023/11/09 08:08:59;;;;;;;;;;;;;;;20.75;31.19;98424.66;5034714;28;1014;-73
2023/11/09 08:11:26;;;;;;;;;;;;;;;20.99;31.12;98430.31;5018030;28;1048;-74
2023/11/09 08:13:52;;;;;;;;;;;;;;;21.11;30.69;98429.69;5018413;28;1530;-73
2023/11/09 08:16:17;;;;;;;;;;;;;;;21.17;30.46;98430.78;5034323;28;1033;-73
2023/11/09 08:18:43;;;;;;;;;;;;;;;21.05;30.92;98431.44;5033353;28;1578;-73
2023/11/09 08:21:09;;;;;;;;;;;;;;;20.98;31.06;98437.19;4988917;28;1343;-73
2023/11/09 08:23:35;;;;;;;;;;;;;;;20.92;30.80;98433.25;4976361;28;1981;-73
2023/11/09 08:26:04;;;;;;;;;;;;;;;20.66;31.35;98447.00;4990644;28;1671;-73
2023/11/09 08:28:30;;;;;;;;;;;;;;;20.99;30.58;98439.59;4979802;28;1313;-73
2023/11/09 08:30:55;;;;;;;;;;;;;;;20.98;30.48;98454.16;4993854;28;1714;-72
2023/11/09 08:33:24;;;;;;;;;;;;;;;20.96;30.92;98445.31;4961974;28;1610;-73
2023/11/09 08:35:52;;;;;;;;;;;;;;;20.68;31.20;98440.94;4978394;28;1601;-73
2023/11/09 08:38:18;;;;;;;;;;;;;;;20.71;31.26;98457.03;4994636;28;871;-73
2023/11/09 08:40:47;;;;;;;;;;;;;;;21.20;30.42;98455.41;5014032;28;1633;-73
2023/11/09 08:43:13;;;;;;;;;;;;;;;21.16;30.11;98454.66;5013330;28;1930;-73
2023/11/09 08:45:39;;;;;;;;;;;;;;;20.86;30.76;98451.94;5012033;28;1849;-74
2023/11/09 08:48:05;;;;;;;;;;;;;;;21.03;30.72;98453.66;4997089;28;1589;-73
2023/11/09 08:50:30;;;;;;;;;;;;;;;20.62;31.37;98460.38;5010701;28;1616;-73
2023/11/09 08:52:56;;;;;;;;;;;;;;;20.81;30.81;98456.84;5032016;28;1593;-73
2023/11/09 08:55:22;;;;;;;;;;;;;;;20.99;30.45;98450.13;5034620;28;962;-73
2023/11/09 08:57:48;;;;;;;;;;;;;;;20.92;30.35;98455.88;5050850;28;1321;-73
2023/11/09 09:00:13;;;;;;;;;;;;;;;20.93;30.52;98457.47;5034731;28;1163;-73
2023/11/09 09:02:48;;;;;;;;;;;;;;;20.62;31.00;98449.06;5050906;28;1910;-73
2023/11/09 09:05:17;;;;;;;;;;;;;;;20.72;31.05;98445.28;5033988;28;1710;-73
2023/11/09 09:07:43;;;;;;;;;;;;;;;20.75;30.81;98458.56;5034263;28;1704;-72
2023/11/09 09:10:15;;;;;;;;;;;;;;;21.22;30.22;98457.81;5034426;28;1768;-74
2023/11/09 09:12:44;;;;;;;;;;;;;;;21.04;30.22;98455.28;5050025;28;1808;-72
2023/11/09 09:15:13;;;;;;;;;;;;;;;20.91;30.63;98459.94;5035281;28;1634;-73
2023/11/09 09:17:42;;;;;;;;;;;;;;;20.63;30.96;98453.53;5037876;28;1741;-73
2023/11/09 09:20:15;;;;;;;;;;;;;;;20.61;30.88;98453.13;5003955;28;1755;-73
2023/11/09 09:22:41;;;;;;;;;;;;;;;20.86;30.65;98455.56;5011596;28;1983;-73
2023/11/09 09:25:10;;;;;;;;;;;;;;;21.19;29.92;98453.81;5020250;28;1706;-73
2023/11/09 09:27:48;;;;;;;;;;;;;;;21.15;29.83;98453.06;5020771;28;1691;-73
2023/11/09 09:30:17;;;;;;;;;;;;;;;21.07;30.00;98457.25;5012020;28;1401;-73
2023/11/09 09:32:43;;;;;;;;;;;;;;;21.07;29.90;98458.03;5004357;28;1670;-73
2023/11/09 09:35:12;;;;;;;;;;;;;;;20.67;30.47;98450.63;5033880;28;1720;-72
2023/11/09 09:37:38;;;;;;;;;;;;;;;20.83;30.25;98464.09;5036703;28;1631;-73
2023/11/09 09:40:25;;;;;;;;;;;;;;;20.94;30.00;98465.56;5003436;28;1635;-73
2023/11/09 09:42:52;;;;;;;;;;;;;;;20.99;29.76;98455.78;5036292;28;1902;-73
2023/11/09 09:45:26;;;;;;;;;;;;;;;21.24;29.72;98461.81;5019994;28;1765;-72
2023/11/09 09:47:53;;;;;;;;;;;;;;;20.98;29.97;98459.81;5020709;28;1803;-73
2023/11/09 09:50:22;;;;;;;;;;;;;;;20.77;30.13;98464.59;5003712;28;1713;-73
2023/11/09 09:52:51;;;;;;;;;;;;;;;20.64;30.36;98460.78;5037473;28;1411;-73
2023/11/09 09:55:18;;;;;;;;;;;;;;;20.75;30.42;98463.44;5016359;28;1900;-73
2023/11/09 09:57:44;;;;;;;;;;;;;;;21.09;29.51;98466.13;4983860;28;1724;-73
2023/11/09 10:00:12;;;;;;;;;;;;;;;20.73;30.22;98461.03;4983719;28;1703;-72
2023/11/09 10:02:40;;;;;;;;;;;;;;;20.99;29.91;98461.44;4976910;28;1979;-72
2023/11/09 10:05:12;;;;;;;;;;;;;;;21.11;29.55;98469.31;4945320;28;1607;-73
2023/11/09 10:07:56;;;;;;;;;;;;;;;21.19;29.36;98456.66;4952006;28;1586;-73
2023/11/09 10:10:21;;;;;;;;;;;;;;;21.09;29.51;98471.78;4963067;28;1593;-74
2023/11/09 10:12:47;;;;;;;;;;;;;;;21.20;29.32;98461.06;4977192;28;1726;-72
2023/11/09 10:15:15;;;;;;;;;;;;;;;21.11;29.55;98463.66;4976948;28;1491;-73
2023/11/09 10:17:41;;;;;;;;;;;;;;;20.96;29.85;98459.47;4960848;28;2035;-73
2023/11/09 10:20:11;;;;;;;;;;;;;;;20.72;30.19;98456.59;4960937;28;1960;-72
2023/11/09 10:22:37;;;;;;;;;;;;;;;21.03;29.89;98465.78;4951355;28;1981;-73
2023/11/09 10:25:04;;;;;;;;;;;;;;;20.95;29.74;98469.19;4960537;28;1818;-73
2023/11/09 10:27:30;;;;;;;;;;;;;;;20.90;29.71;98467.63;4979154;28;1542;-74
2023/11/09 10:29:56;;;;;;;;;;;;;;;20.88;29.68;98469.28;4996746;28;1652;-73
2023/11/09 10:32:23;;;;;;;;;;;;;;;21.11;29.26;98466.47;4994644;28;1731;-73
2023/11/09 10:34:50;;;;;;;;;;;;;;;21.04;29.78;98475.09;5036910;28;1604;-73
2023/11/09 10:37:18;;;;;;;;;;;;;;;20.89;30.01;98473.72;5036431;28;1781;-73
2023/11/09 10:39:46;;;;;;;;;;;;;;;20.92;29.88;98475.69;5036748;28;1655;-73
2023/11/09 10:42:12;;;;;;;;;;;;;;;21.08;29.45;98464.50;5003913;28;1915;-73
2023/11/09 10:44:42;;;;;;;;;;;;;;;21.04;29.41;98469.44;5036570;28;1782;-73
2023/11/09 10:47:08;;;;;;;;;;;;;;;21.00;29.56;98474.34;5037691;28;1543;-72
2023/11/09 10:49:35;;;;;;;;;;;;;;;20.77;29.79;98464.59;5017141;28;1687;-73
2023/11/09 10:52:01;;;;;;;;;;;;;;;20.76;29.78;98473.50;5020091;28;1704;-73
2023/11/09 10:54:29;;;;;;;;;;;;;;;21.04;29.54;98475.09;5017438;28;1458;-73
2023/11/09 10:57:01;;;;;;;;;;;;;;;21.11;29.43;98468.50;5016392;28;1807;-73
2023/11/09 10:59:26;;;;;;;;;;;;;;;21.16;29.00;98476.50;5016450;28;1758;-73
2023/11/09 11:01:59;;;;;;;;;;;;;;;20.98;29.63;98476.78;5033672;28;1975;-74
2023/11/09 11:04:25;;;;;;;;;;;;;;;21.03;29.47;98473.47;4962079;28;1542;-73
2023/11/09 11:06:51;;;;;;;;;;;;;;;20.85;29.77;98472.97;4977065;28;1583;-73
2023/11/09 11:09:25;;;;;;;;;;;;;;;20.72;29.88;98479.22;4975904;28;1717;-72
2023/11/09 11:11:52;;;;;;;;;;;;;;;20.95;29.42;98477.66;4975962;28;1651;-73
2023/11/09 11:14:18;;;;;;;;;;;;;;;20.97;29.19;98475.19;4977644;28;1702;-72
2023/11/09 11:17:22;;;;;;;;;;;;;;;21.25;29.11;98480.38;4994102;28;1600;-73
2023/11/09 11:19:57;;;;;;;;;;;;;;;21.13;29.10;98475.31;4923704;29;1772;-72
2023/11/09 11:22:25;;;;;;;;;;;;;;;21.08;29.10;98481.47;4956496;29;1976;-73
2023/11/09 11:25:14;;;;;;;;;;;;;;;20.92;29.48;98484.97;4956133;29;1769;-74
2023/11/09 11:27:39;;;;;;;;;;;;;;;20.99;29.20;98475.59;4956289;28;1687;-73
2023/11/09 11:30:25;;;;;;;;;;;;;;;20.90;29.58;98486.63;4940443;29;1835;-73
2023/11/09 11:32:50;;;;;;;;;;;;;;;21.03;29.26;98484.78;4955833;28;1806;-74
2023/11/09 11:35:28;;;;;;;;;;;;;;;20.94;29.38;98491.00;4955929;28;1618;-73
2023/11/09 11:37:59;;;;;;;;;;;;;;;21.31;28.56;98489.22;4924195;28;1730;-72
2023/11/09 11:40:32;;;;;;;;;;;;;;;20.94;29.34;98493.84;4923932;29;1623;-73
2023/11/09 11:42:58;;;;;;;;;;;;;;;20.94;29.25;98499.50;4939978;29;1978;-73
2023/11/09 11:45:24;;;;;;;;;;;;;;;20.65;29.67;98492.69;4956534;29;1634;-72
2023/11/09 11:47:50;;;;;;;;;;;;;;;21.00;29.17;98496.97;4917615;29;1545;-73
2023/11/09 11:50:16;;;;;;;;;;;;;;;20.98;29.24;98497.41;4947029;28;1469;-72
2023/11/09 11:52:46;;;;;;;;;;;;;;;20.74;29.41;98501.44;4995028;28;1589;-73
2023/11/09 11:55:13;;;;;;;;;;;;;;;21.14;28.78;98496.75;4978217;28;1636;-72
2023/11/09 11:57:57;;;;;;;;;;;;;;;20.87;29.52;98493.16;4994675;28;1779;-73
2023/11/09 12:00:27;;;;;;;;;;;;;;;20.58;29.75;98499.25;4986553;28;1642;-73
2023/11/09 12:02:53;;;;;;;;;;;;;;;20.64;29.68;98497.53;4994231;28;1988;-73
2023/11/09 12:05:30;;;;;;;;;;;;;;;20.77;29.74;98494.91;4994488;28;1745;-73
2023/11/09 12:07:55;;;;;;;;;;;;;;;20.80;29.27;98506.19;4994764;28;1617;-73
2023/11/09 12:10:23;;;;;;;;;;;;;;;20.70;29.52;98501.47;4977879;28;1716;-73
2023/11/09 12:12:56;;;;;;;;;;;;;;;21.50;29.25;98507.47;4994069;28;1636;-73
2023/11/09 12:15:28;;;;;;;;;;;;;;;21.88;29.38;98512.84;4994269;28;1703;-72
2023/11/09 12:17:56;;;;;;;;;;;;;;;21.75;29.90;98502.13;4982915;28;1632;-73
2023/11/09 12:20:23;;;;;;;;;;;;;;;21.53;30.65;98506.59;5035876;28;1552;-73
2023/11/09 12:22:49;;;;;;;;;;;;;;;21.29;30.74;98506.56;5034857;28;1971;-73
2023/11/09 12:25:18;;;;;;;;;;;;;;;21.00;31.23;98511.13;5018057;28;1616;-72
2023/11/09 12:27:46;;;;;;;;;;;;;;;21.16;30.58;98499.94;4996563;28;1620;-73
2023/11/09 12:30:12;;;;;;;;;;;;;;;21.20;30.58;98502.72;5014058;28;1796;-73
2023/11/09 12:32:38;;;;;;;;;;;;;;;21.02;30.85;98506.63;4997209;28;1676;-73
2023/11/09 12:35:04;;;;;;;;;;;;;;;20.83;31.09;98503.72;4997316;28;1700;-73
2023/11/09 12:37:32;;;;;;;;;;;;;;;21.16;30.71;98504.81;4997406;28;1564;-73
2023/11/09 12:39:59;;;;;;;;;;;;;;;20.88;31.04;98511.72;4996783;28;1665;-73
2023/11/09 12:42:25;;;;;;;;;;;;;;;20.68;31.50;98498.28;4964936;28;1910;-73
2023/11/09 12:44:53;;;;;;;;;;;;;;;20.68;31.32;98498.28;5013236;28;1795;-73
2023/11/09 12:47:20;;;;;;;;;;;;;;;20.63;31.46;98501.59;4974202;28;1773;-73
2023/11/09 12:50:03;;;;;;;;;;;;;;;21.03;30.62;98501.78;4958912;28;1699;-73
2023/11/09 12:52:28;;;;;;;;;;;;;;;21.26;30.17;98498.97;4977573;28;1823;-73
2023/11/09 12:54:55;;;;;;;;;;;;;;;21.15;30.42;98506.84;4978411;28;1574;-73
2023/11/09 12:57:22;;;;;;;;;;;;;;;20.90;31.04;98503.63;4962336;28;1680;-73
2023/11/09 12:59:51;;;;;;;;;;;;;;;20.61;31.20;98491.94;4999265;28;1622;-73
2023/11/09 13:02:18;;;;;;;;;;;;;;;20.61;31.34;98494.75;5000652;28;1926;-73
2023/11/09 13:04:46;;;;;;;;;;;;;;;21.25;30.34;98500.19;4985375;28;1739;-73
2023/11/09 13:07:12;;;;;;;;;;;;;;;21.30;30.05;98499.75;4985001;28;1629;-73
2023/11/09 13:09:38;;;;;;;;;;;;;;;21.10;30.46;98496.00;5000891;28;1747;-73